Date,TemperatureHighF,TemperatureAvgF,TemperatureLowF,DewpointHighF,DewpointAvgF,DewpointLowF,HumidityHigh,HumidityAvg,HumidityLow,PressureMaxIn,PressureMinIn,WindSpeedMaxMPH,WindSpeedAvgMPH,GustSpeedMaxMPH,PrecipitationSumIn
2012-1-1,51.4,42.8,34.3,47.8,39.5,34.0,100,87,62,30.02,29.58,10,1,10,0.00
2012-1-2,49.9,41.3,33.8,48.9,30.8,19.0,95,66,39,29.68,29.49,25,2,25,0.00
2012-1-3,33.9,26.7,17.1,23.6,9.1,-6.6,69,50,38,29.97,29.66,15,2,15,0.00
2012-1-4,28.1,21.9,14.2,10.2,1.1,-4.9,59,46,33,30.06,29.86,13,1,13,0.00
2012-1-5,37.4,32.0,27.4,24.9,17.6,9.4,65,54,44,29.88,29.69,10,1,10,0.00
2012-1-6,46.8,36.1,28.4,34.5,27.3,17.5,87,69,59,29.90,29.66,12,0,12,0.00
2012-1-7,58.1,43.3,31.9,36.9,32.5,27.9,89,67,41,29.85,29.59,13,0,13,0.00
2012-1-8,43.9,39.0,30.0,31.4,26.0,18.5,72,58,45,30.23,29.84,12,1,12,0.00
2012-1-9,39.6,31.9,26.1,23.6,18.3,12.6,77,58,32,30.25,29.93,6,0,6,0.00
2012-1-10,45.4,36.7,29.9,30.0,27.9,22.9,89,70,52,29.93,29.70,13,1,13,0.00
2012-1-11,39.6,33.3,27.4,32.2,26.5,22.5,89,75,50,30.10,29.90,6,0,6,0.00
2012-1-12,42.9,39.5,36.5,42.1,37.3,32.2,97,90,79,30.01,29.42,17,2,17,0.00
2012-1-13,51.4,38.9,31.9,49.9,31.3,18.1,100,74,52,29.55,29.12,25,3,25,0.00
2012-1-14,34.2,30.3,21.6,22.1,16.2,2.9,65,56,41,29.96,29.55,19,2,19,0.00
2012-1-15,21.7,15.4,10.3,6.2,-2.9,-7.9,73,53,40,30.47,29.96,19,2,19,0.00
2012-1-16,34.5,22.4,11.9,32.6,7.7,-2.9,91,59,35,30.54,30.07,10,1,10,0.00
2012-1-17,48.6,39.2,34.5,46.5,37.2,32.6,98,91,82,30.07,29.42,13,1,13,0.00
2012-1-18,51.4,36.6,23.8,46.6,20.2,0.2,90,52,39,30.10,29.37,23,4,23,0.00
2012-1-19,32.5,26.0,18.7,29.6,13.9,0.2,88,65,43,30.25,29.91,12,0,12,0.00
2012-1-20,32.4,28.8,22.7,30.1,18.1,3.4,89,67,43,30.24,29.87,19,1,19,0.00
2012-1-21,25.2,23.2,19.6,15.0,9.9,0.9,79,69,46,30.30,30.05,12,0,12,0.00
2012-1-22,34.6,26.8,16.6,25.7,16.2,4.0,77,69,60,30.52,30.29,8,0,8,0.00
2012-1-23,48.9,37.4,31.4,47.6,32.7,24.1,95,83,73,30.47,29.81,6,0,6,0.00
2012-1-24,55.8,50.2,42.0,51.1,43.3,30.6,95,77,57,30.01,29.79,12,1,12,0.00
2012-1-25,43.9,39.2,35.2,30.7,28.1,26.4,76,63,52,30.15,30.00,15,2,15,0.00
2012-1-26,42.2,35.9,31.8,35.2,31.0,27.4,98,82,62,30.17,29.93,6,0,6,0.00
2012-1-27,43.9,40.9,35.4,44.0,40.2,33.3,100,97,76,29.94,29.21,23,1,23,0.00
2012-1-28,46.4,39.9,33.3,33.9,31.1,27.9,88,71,50,29.95,29.55,17,1,17,0.00
2012-1-29,42.4,37.2,30.4,33.5,20.4,15.2,81,51,33,30.04,29.83,19,2,19,0.00
2012-1-30,39.9,33.4,26.7,26.8,19.7,12.5,79,58,33,30.24,29.87,23,2,23,0.00
2012-1-31,46.1,36.1,28.3,34.8,26.3,20.8,95,67,49,30.24,29.96,6,0,6,0.00
2012-2-1,58.3,45.0,35.4,43.2,37.8,31.5,98,77,55,29.97,29.71,15,1,15,0.00
2012-2-2,42.9,37.4,32.1,33.9,30.4,23.9,82,75,61,30.14,29.91,10,0,10,0.00
2012-2-3,39.2,32.0,25.7,24.5,17.2,9.7,72,56,30,30.33,30.14,13,1,13,0.00
2012-2-4,44.2,34.8,27.0,27.6,21.2,8.6,85,58,38,30.22,30.05,10,0,10,0.00
2012-2-5,36.9,28.1,21.1,17.3,11.5,5.9,71,55,33,30.12,30.01,8,0,8,0.00
2012-2-6,49.9,36.2,25.4,26.6,21.1,12.9,76,58,34,30.04,29.79,13,2,13,0.00
2012-2-7,45.6,37.2,29.7,29.7,25.8,19.9,84,63,47,30.19,29.82,6,0,11,0.00
2012-2-8,38.7,30.2,19.7,21.6,12.5,4.9,75,51,30,30.28,30.01,8,0,8,0.00
2012-2-9,47.2,35.5,27.6,21.6,18.0,12.7,71,51,27,30.05,29.91,12,0,12,0.00
2012-2-10,50.7,37.6,25.4,34.0,21.5,12.9,79,56,31,30.06,29.83,13,1,13,0.00
2012-2-11,39.5,35.7,30.2,35.1,30.3,16.4,98,81,56,29.84,29.48,13,1,13,0.00
2012-2-12,30.1,23.2,17.2,18.3,2.4,-3.7,61,46,34,29.85,29.49,25,3,25,0.00
2012-2-13,42.5,29.1,15.8,20.5,13.8,-2.4,77,57,37,29.93,29.75,21,2,21,0.00
2012-2-14,44.1,32.5,23.9,25.1,17.9,13.2,84,61,29,30.07,29.93,8,0,8,0.00
2012-2-15,46.9,38.2,32.1,37.1,32.3,25.1,93,79,66,30.19,30.04,4,0,4,0.00
2012-2-16,47.6,37.8,28.4,38.2,32.8,27.6,97,83,54,30.24,29.99,10,0,10,0.00
2012-2-17,53.3,42.5,32.3,43.9,34.1,22.6,98,75,42,30.00,29.79,13,1,13,0.00
2012-2-18,48.3,38.3,30.0,30.1,25.0,20.1,90,61,37,29.93,29.78,15,1,15,0.00
2012-2-19,47.2,35.7,28.3,30.5,22.5,17.1,90,61,32,30.02,29.90,8,0,8,0.00
2012-2-20,42.6,32.3,25.5,20.1,15.0,9.2,74,52,27,30.25,29.95,15,1,15,0.00
2012-2-21,45.9,34.1,22.5,37.2,21.1,12.9,89,65,34,30.28,29.80,12,1,12,0.00
2012-2-22,57.1,44.4,35.4,38.3,33.2,25.4,98,69,34,29.80,29.48,17,1,17,0.00
2012-2-23,55.2,46.3,36.7,45.4,35.9,25.1,93,69,42,29.75,29.30,21,1,21,0.00
2012-2-24,41.3,37.9,33.9,41.3,34.3,26.2,100,87,67,30.67,29.15,12,0,12,0.00
2012-2-25,44.5,38.7,32.3,39.2,25.9,18.5,99,61,40,29.76,29.16,29,5,29,0.00
2012-2-26,44.2,33.1,27.5,20.4,11.0,3.9,60,40,21,30.39,29.75,17,3,17,0.00
2012-2-27,52.5,37.7,23.0,33.8,23.7,11.1,81,60,40,30.41,29.96,15,2,15,0.00
2012-2-28,49.5,40.9,32.6,33.8,22.8,15.4,81,49,29,30.34,29.98,19,2,19,0.00
2012-2-29,39.2,34.9,32.4,35.4,24.9,15.1,96,68,44,30.34,29.87,8,0,8,0.00
2012-3-1,37.5,33.5,25.9,37.0,32.4,17.2,97,94,83,29.97,29.70,19,3,19,0.00
2012-3-2,34.3,30.0,24.9,31.7,25.0,16.3,89,84,78,30.11,29.92,10,1,10,0.00
2012-3-3,44.9,37.8,34.0,44.1,37.0,31.8,97,94,88,29.93,29.31,6,0,6,0.00
2012-3-4,43.0,36.5,33.2,35.5,29.5,23.7,93,75,48,29.64,29.48,8,0,8,0.00
2012-3-5,39.4,32.2,26.4,25.1,16.8,6.6,67,52,32,30.25,29.59,19,3,19,0.00
2012-3-6,43.1,29.7,20.3,19.6,9.0,0.9,63,45,22,30.53,30.25,13,1,13,0.00
2012-3-7,64.5,45.6,30.2,39.5,31.1,17.7,82,58,31,30.53,30.19,23,3,23,0.00
2012-3-8,69.2,58.3,50.2,49.7,46.8,39.5,79,65,43,30.20,29.65,21,6,21,0.00
2012-3-9,60.7,43.8,35.4,51.9,28.5,17.9,79,55,31,30.10,29.63,25,3,25,0.00
2012-3-10,41.9,35.0,28.9,28.5,22.7,18.3,79,59,44,30.48,30.09,17,2,17,0.00
2012-3-11,62.0,42.9,28.3,32.5,26.1,22.1,85,54,26,30.46,30.20,13,2,17,0.00
2012-3-12,75.3,54.7,37.5,37.7,32.8,28.0,77,47,19,30.22,30.06,10,1,10,0.00
2012-3-13,74.4,58.8,49.0,56.0,48.3,36.6,94,69,47,30.06,29.80,12,1,15,0.00
2012-3-14,57.7,47.9,41.8,51.0,44.4,38.4,94,86,68,30.22,29.88,10,1,10,0.00
2012-3-15,47.5,41.9,38.6,39.0,36.3,33.6,91,79,65,30.33,30.20,10,1,10,0.00
2012-3-16,45.8,41.6,35.8,44.0,38.0,33.1,96,85,71,30.30,30.05,6,0,6,0.00
2012-3-17,53.8,46.0,39.7,45.6,41.7,38.6,97,84,64,30.32,30.10,8,0,8,0.00
2012-3-18,78.0,55.5,39.6,50.3,45.1,38.5,95,71,35,30.29,30.07,15,2,15,0.00
2012-3-19,80.6,57.7,46.6,52.6,47.5,44.0,96,72,31,30.23,30.06,10,1,10,0.00
2012-3-20,82.9,61.2,42.6,55.9,48.5,41.0,94,67,32,30.28,30.15,12,1,12,0.00
2012-3-21,81.0,65.3,53.3,59.3,56.4,52.6,99,75,43,30.30,30.16,12,2,12,0.00
2012-3-22,85.3,67.8,55.8,58.0,55.3,52.2,96,68,34,30.19,29.93,13,2,13,0.00
2012-3-23,78.8,66.7,59.0,55.7,42.4,23.8,82,46,21,30.08,29.91,12,2,12,0.00
2012-3-24,60.2,52.3,49.3,38.5,31.2,23.9,65,45,26,30.13,30.00,12,1,12,0.00
2012-3-25,49.9,46.8,44.1,43.2,39.1,33.5,90,74,56,30.00,29.66,8,0,8,0.00
2012-3-26,48.5,41.8,33.3,44.3,26.5,8.1,96,59,27,29.93,29.56,23,4,23,0.00
2012-3-27,53.9,37.8,28.5,17.4,6.7,1.2,46,27,13,30.13,29.92,19,3,19,0.00
2012-3-28,52.5,44.9,34.4,46.2,32.3,12.7,91,62,29,30.10,29.49,12,1,12,0.00
2012-3-29,48.1,45.3,41.7,46.6,36.7,28.9,94,71,52,29.87,29.47,13,2,13,0.00
2012-3-30,56.6,44.1,36.0,30.7,23.4,12.9,75,46,18,29.98,29.86,17,2,17,0.00
2012-3-31,46.9,41.0,33.6,39.8,34.6,25.0,92,76,48,30.00,29.83,8,0,8,0.00
2012-4-1,53.8,41.8,30.9,42.7,35.3,29.4,94,78,43,29.85,29.57,10,1,10,0.00
2012-4-2,57.7,45.6,40.0,42.2,30.9,15.4,94,61,21,29.76,29.52,15,3,15,0.00
2012-4-3,66.0,45.3,35.9,28.8,19.3,11.7,54,36,16,29.79,29.65,17,2,17,0.00
2012-4-4,66.9,52.0,37.8,38.6,28.6,19.1,69,43,20,29.69,29.40,21,2,21,0.00
2012-4-5,57.5,44.9,36.7,34.8,28.4,22.9,78,53,31,29.85,29.60,13,2,13,0.00
2012-4-6,57.7,42.9,32.7,27.6,23.6,18.6,74,47,24,29.93,29.81,10,1,11,0.00
2012-4-7,57.2,43.8,31.9,30.3,23.9,18.3,68,45,27,29.97,29.85,13,1,13,0.00
2012-4-8,52.2,46.2,40.5,31.8,28.3,22.5,68,49,33,29.93,29.55,17,2,17,0.00
2012-4-9,61.1,50.3,39.0,35.0,32.2,29.3,75,50,34,29.58,29.44,21,3,21,0.00
2012-4-10,65.6,51.7,39.2,33.6,28.5,22.6,64,42,20,29.70,29.53,13,2,13,0.00
2012-4-11,62.2,49.7,42.9,38.0,34.1,30.3,78,55,37,29.82,29.69,10,1,10,0.00
2012-4-12,54.9,44.6,38.2,47.8,40.3,36.2,96,84,50,30.03,29.80,13,1,13,0.00
2012-4-13,69.6,50.6,34.2,40.2,33.5,23.1,98,58,21,30.10,29.95,13,1,13,0.00
2012-4-14,72.8,57.6,40.4,36.7,30.4,24.3,68,38,18,30.09,29.91,13,1,13,0.00
2012-4-15,78.6,65.3,54.0,55.8,48.4,34.9,72,54,41,29.94,29.82,13,1,13,0.00
2012-4-16,90.7,73.2,58.3,59.6,56.8,50.5,93,61,30,29.95,29.82,10,1,10,0.00
2012-4-17,85.1,69.6,56.5,57.4,43.1,24.3,90,47,14,30.07,29.82,17,2,17,0.00
2012-4-18,65.7,55.7,49.5,41.9,35.2,27.6,73,46,29,30.19,30.06,10,1,10,0.00
2012-4-19,74.0,57.7,44.3,45.9,42.7,33.3,90,61,23,30.09,29.90,15,1,15,0.00
2012-4-20,78.6,61.1,48.0,50.4,45.3,37.5,87,59,29,29.96,29.85,15,1,15,0.00
2012-4-21,78.3,64.8,55.8,58.0,53.8,44.8,92,68,43,29.85,29.63,13,2,13,0.00
2012-4-22,62.0,53.0,43.9,58.9,50.6,43.6,97,90,79,29.79,29.60,15,1,15,0.00
2012-4-23,64.1,52.2,43.7,62.9,50.5,43.1,100,92,81,29.63,29.26,15,1,15,0.00
2012-4-24,60.4,50.9,45.3,46.2,38.9,32.3,95,65,36,29.65,29.34,13,2,13,0.00
2012-4-25,62.7,49.9,40.4,42.3,37.6,29.6,95,66,31,29.82,29.64,12,1,12,0.00
2012-4-26,65.8,51.3,36.9,51.9,39.4,30.6,87,65,34,29.90,29.49,12,0,12,0.00
2012-4-27,57.9,51.6,40.4,54.0,37.9,25.5,94,60,39,29.95,29.43,28,2,28,0.00
2012-4-28,60.1,47.3,34.1,29.8,24.6,19.4,74,43,22,30.07,29.94,10,1,13,0.00
2012-4-29,61.1,48.7,36.8,31.2,23.3,15.4,75,39,19,30.16,29.93,13,1,13,0.00
2012-4-30,63.4,49.4,33.9,37.0,27.3,19.5,73,44,23,30.28,30.13,8,0,8,0.00
2012-5-1,50.8,47.6,45.1,49.0,44.2,33.9,97,88,52,30.17,29.99,10,0,10,0.00
2012-5-2,54.5,49.0,45.7,48.4,46.4,45.1,98,89,74,30.18,30.07,4,0,4,0.00
2012-5-3,53.8,50.3,47.4,51.5,48.9,45.6,97,93,88,30.16,30.06,4,0,4,0.00
2012-5-4,59.6,54.1,50.5,56.9,52.9,49.4,98,94,88,30.07,29.86,6,0,6,0.00
2012-5-5,62.6,55.9,49.5,57.0,53.0,48.1,94,88,76,30.04,29.88,6,0,6,0.00
2012-5-6,60.7,52.3,46.1,52.1,46.1,41.6,96,79,53,30.10,30.02,8,0,8,0.00
2012-5-7,71.2,57.4,45.4,51.7,45.5,40.4,93,66,43,30.10,30.02,8,0,8,0.00
2012-5-8,57.2,53.8,49.7,55.3,48.4,39.8,97,82,57,30.05,29.83,17,0,17,0.00
2012-5-9,64.2,60.0,55.4,62.8,59.6,55.0,98,97,93,29.83,29.54,8,0,8,0.00
2012-5-10,66.2,58.5,49.8,60.1,52.1,41.3,98,79,49,29.65,29.33,19,1,19,0.00
2012-5-11,63.9,54.4,45.4,45.8,41.1,33.9,85,62,35,29.99,29.64,12,1,12,0.00
2012-5-12,78.3,61.8,43.7,49.7,41.1,28.9,88,52,23,30.10,29.97,12,1,12,0.00
2012-5-13,84.1,67.7,54.0,55.8,50.4,45.0,82,56,27,30.11,29.98,10,0,10,0.00
2012-5-14,75.6,61.5,56.8,61.8,56.1,52.8,98,82,60,30.13,30.03,12,0,12,0.00
2012-5-15,72.9,63.3,57.3,62.7,59.2,55.8,98,86,56,30.12,29.91,12,1,12,0.00
2012-5-16,72.8,65.3,62.2,66.8,63.5,61.2,99,93,74,29.91,29.74,12,0,12,0.00
2012-5-17,71.5,61.2,49.7,61.5,46.5,36.2,97,60,30,30.10,29.81,13,1,13,0.00
2012-5-18,71.5,57.7,44.8,53.8,46.1,41.3,96,67,40,30.21,30.09,8,0,8,0.00
2012-5-19,76.5,61.3,45.8,54.2,47.6,42.9,94,63,33,30.15,30.06,8,0,8,0.00
2012-5-20,80.8,66.3,51.2,55.4,50.4,46.3,92,59,32,30.25,30.11,8,0,8,0.00
2012-5-21,68.3,60.3,50.1,60.8,56.5,48.2,95,86,74,30.24,30.02,8,0,8,0.00
2012-5-22,65.4,61.8,59.3,64.5,61.4,58.6,98,96,95,30.02,29.77,8,0,8,0.00
2012-5-23,77.9,67.4,61.2,67.2,63.8,61.1,99,88,62,30.01,29.78,6,0,6,0.00
2012-5-24,79.5,67.8,60.3,66.4,62.7,59.8,98,83,60,30.20,30.00,8,1,8,0.00
2012-5-25,75.0,67.1,61.3,67.8,63.5,59.1,93,86,75,30.22,30.05,10,1,10,0.00
2012-5-26,85.8,75.0,67.1,71.7,67.1,63.5,93,76,50,30.07,29.96,8,0,8,0.00
2012-5-27,79.0,69.4,59.4,64.0,57.1,47.3,90,65,40,30.13,29.96,8,0,8,0.00
2012-5-28,77.7,67.9,62.2,64.8,61.3,57.6,94,78,57,29.98,29.88,8,1,8,0.00
2012-5-29,76.8,68.0,62.1,68.5,64.3,58.9,96,86,70,29.91,29.65,8,0,8,0.00
2012-5-30,74.5,69.0,64.5,69.4,66.7,64.1,97,90,69,29.71,29.64,6,0,6,0.00
2012-5-31,83.2,71.2,63.0,65.3,57.6,51.1,93,63,35,29.86,29.66,10,0,10,0.00
2012-6-1,72.3,63.2,56.5,55.3,49.0,40.4,82,59,33,30.04,29.86,10,1,10,0.00
2012-6-2,64.5,60.2,55.1,64.7,58.0,48.3,98,90,68,29.97,29.63,8,0,8,0.00
2012-6-3,66.4,60.5,54.8,63.1,57.8,52.7,97,88,71,29.66,29.60,10,1,10,0.00
2012-6-4,54.8,52.6,50.5,53.5,51.7,50.1,97,93,87,29.77,29.57,13,1,13,0.00
2012-6-5,58.6,53.2,50.7,54.1,51.7,50.1,97,91,79,29.90,29.73,4,0,4,0.00
2012-6-6,68.4,57.5,50.0,58.8,53.9,49.1,96,86,60,29.95,29.88,6,0,6,0.00
2012-6-7,73.6,60.2,53.9,60.2,56.6,53.6,97,86,51,29.94,29.85,8,0,11,0.00
2012-6-8,81.8,63.7,52.9,65.8,58.8,52.4,98,84,39,29.90,29.70,8,0,8,0.00
2012-6-9,78.2,66.5,56.7,60.6,56.1,48.9,95,71,37,29.90,29.74,8,0,8,0.00
2012-6-10,81.9,68.0,56.6,60.3,53.6,43.8,94,63,31,30.18,29.89,8,0,8,0.00
2012-6-11,79.3,65.6,54.5,60.9,55.3,51.5,93,69,47,30.26,30.17,10,1,10,0.00
2012-6-12,76.9,66.8,58.8,64.8,59.2,52.5,93,75,61,30.17,29.93,19,1,19,0.00
2012-6-13,66.1,64.3,63.0,65.6,63.9,62.1,97,96,93,30.03,29.88,6,0,6,0.00
2012-6-14,76.7,65.6,55.8,64.7,57.4,43.8,98,76,36,30.23,30.02,10,1,10,0.00
2012-6-15,77.0,63.0,53.3,59.7,53.6,49.8,95,72,48,30.29,30.20,10,1,10,0.00
2012-6-16,70.1,60.2,51.8,59.3,54.6,51.0,95,80,63,30.32,30.23,12,1,12,0.00
2012-6-17,73.0,60.1,51.6,58.9,53.1,50.1,94,77,52,30.25,30.08,10,1,10,0.00
2012-6-18,74.5,61.4,50.8,59.5,54.8,49.8,96,78,53,30.13,30.06,8,0,8,0.00
2012-6-19,75.5,65.7,54.7,64.7,60.0,54.0,95,81,64,30.13,29.98,13,1,13,0.00
2012-6-20,95.0,79.9,64.2,77.9,70.4,62.3,95,74,49,29.99,29.80,8,0,8,0.00
2012-6-21,95.9,84.0,73.0,75.0,71.0,67.4,88,65,39,29.82,29.68,10,0,10,0.00
2012-6-22,95.7,80.3,71.9,73.3,70.0,66.0,96,72,38,29.73,29.64,8,0,8,0.00
2012-6-23,86.5,71.7,63.6,72.5,68.1,18.1,98,88,47,29.88,29.71,8,0,8,0.00
2012-6-24,86.3,71.4,59.6,64.4,59.4,49.8,98,69,30,29.91,29.82,8,0,8,0.00
2012-6-25,72.3,67.5,62.3,68.5,64.3,59.3,98,87,69,29.83,29.59,13,0,13,0.00
2012-6-26,74.2,65.5,59.9,62.7,59.1,55.8,97,79,60,29.61,29.49,12,1,12,0.00
2012-6-27,76.0,67.4,58.9,59.6,56.7,54.0,86,68,51,29.69,29.52,13,1,13,0.00
2012-6-28,85.7,72.6,60.7,61.5,57.6,51.1,89,61,33,29.72,29.64,8,1,8,0.00
2012-6-29,89.5,75.0,64.4,74.7,66.4,51.3,97,75,41,29.67,29.49,8,0,8,0.00
2012-6-30,90.7,77.3,64.7,66.6,59.6,54.7,80,56,30,29.68,29.58,10,1,10,0.00
2012-7-1,90.8,77.4,67.8,70.1,65.8,60.3,90,69,36,29.79,29.67,15,1,15,0.00
2012-7-2,86.5,74.1,66.7,67.8,64.5,59.3,94,73,41,29.84,29.76,6,0,6,0.00
2012-7-3,88.1,74.4,64.3,65.6,60.5,53.0,91,64,31,29.88,29.79,12,0,12,0.00
2012-7-4,88.5,75.6,67.5,74.8,70.0,62.9,97,82,55,29.81,29.62,8,0,8,0.00
2012-7-5,85.3,75.8,69.4,72.6,67.4,63.7,94,75,52,29.81,29.61,12,1,12,0.00
2012-7-6,88.0,75.5,63.6,71.0,66.0,62.6,95,73,46,29.87,29.77,8,0,8,0.00
2012-7-7,83.1,76.6,71.0,75.0,68.9,65.8,88,76,58,29.79,29.67,8,0,8,0.00
2012-7-8,88.8,76.8,66.1,68.6,64.5,53.8,94,67,42,29.84,29.71,6,0,6,0.00
2012-7-9,85.5,72.3,61.9,58.0,54.6,49.9,82,55,32,29.93,29.83,10,0,10,0.00
2012-7-10,85.6,71.2,57.8,59.7,53.5,47.3,84,56,28,30.04,29.92,10,0,10,0.00
2012-7-11,87.3,73.7,62.1,65.5,60.5,54.1,92,65,36,30.15,30.03,10,0,10,0.00
2012-7-12,90.7,75.8,63.6,65.5,62.9,58.1,95,67,34,30.15,30.04,13,0,13,0.00
2012-7-13,89.2,76.5,65.7,71.8,64.2,58.0,82,65,48,30.15,30.07,10,1,10,0.00
2012-7-14,89.8,79.2,70.3,72.5,65.8,63.3,82,64,44,30.10,30.00,12,0,12,0.00
2012-7-15,89.0,78.9,68.8,73.5,68.8,64.8,87,71,47,30.06,29.82,10,0,10,0.00
2012-7-16,91.9,80.5,73.0,73.3,70.6,67.0,89,72,44,29.84,29.68,10,1,10,0.00
2012-7-17,95.3,82.8,71.0,72.4,69.4,66.5,93,66,41,29.75,29.62,12,1,12,0.00
2012-7-18,93.5,80.2,72.5,75.3,72.2,67.7,97,77,54,29.85,29.63,12,0,12,0.00
2012-7-19,81.9,72.7,65.1,73.7,64.4,57.4,97,76,48,29.97,29.82,6,0,6,0.00
2012-7-20,72.3,68.5,61.0,65.7,60.5,56.1,91,74,57,30.04,29.96,8,0,8,0.00
2012-7-21,80.6,67.5,55.7,61.2,56.1,51.0,96,69,38,30.08,30.00,10,1,10,0.00
2012-7-22,86.3,71.4,59.0,64.1,60.4,55.6,94,70,37,30.10,30.02,13,1,13,0.00
2012-7-23,83.6,74.1,65.2,71.8,67.6,61.6,93,79,59,30.06,29.71,8,1,8,0.00
2012-7-24,88.8,77.2,70.4,74.1,69.7,55.0,95,77,54,29.71,29.46,10,1,10,0.00
2012-7-25,83.1,72.0,62.1,61.3,56.8,53.9,79,59,39,29.78,29.64,15,1,15,0.00
2012-7-26,82.8,73.9,66.6,74.1,66.9,59.4,91,77,65,29.74,29.53,13,0,13,0.00
2012-7-27,79.2,73.0,68.7,74.2,69.5,67.0,94,87,74,29.87,29.54,6,0,6,0.00
2012-7-28,81.8,70.6,64.6,70.2,66.9,64.0,97,87,60,29.94,29.85,12,0,12,0.00
2012-7-29,71.4,68.1,63.9,69.3,66.3,62.3,98,92,80,30.03,29.88,8,0,8,0.00
2012-7-30,83.4,70.3,59.3,68.7,63.4,59.0,97,79,56,30.08,30.00,10,1,10,0.00
2012-7-31,79.3,68.8,61.0,68.7,65.0,60.4,97,86,61,30.08,29.84,10,0,10,0.00
2012-8-1,84.6,72.0,66.9,74.5,69.9,66.7,98,91,63,29.88,29.80,8,0,8,0.00
2012-8-2,86.9,76.5,68.0,75.5,71.4,68.2,100,84,59,29.85,29.76,10,0,10,0.00
2012-8-3,91.3,80.0,70.8,73.9,71.1,64.7,97,75,43,30.04,29.85,8,0,8,0.00
2012-8-4,92.2,79.7,72.6,78.4,73.9,71.9,96,82,56,30.20,30.04,8,0,8,0.00
2012-8-5,90.7,79.3,72.9,77.3,74.3,71.0,97,84,59,30.18,29.88,15,1,15,0.00
2012-8-6,85.0,76.0,65.8,73.4,65.5,57.9,97,71,42,29.94,29.87,12,1,12,0.00
2012-8-7,84.6,72.0,60.8,66.9,63.0,59.6,96,74,46,29.97,29.89,6,0,6,0.00
2012-8-8,87.1,74.6,63.8,71.2,66.5,62.0,95,76,45,29.95,29.88,6,0,6,0.00
2012-8-9,90.5,77.9,69.6,72.4,69.7,65.5,93,76,44,29.92,29.82,10,0,10,0.00
2012-8-10,85.5,76.3,71.6,74.7,72.7,70.8,97,87,65,29.89,29.74,13,1,13,0.00
2012-8-11,86.0,76.9,69.6,77.0,73.3,69.6,99,88,70,29.88,29.76,13,1,13,0.00
2012-8-12,84.6,77.4,73.0,74.5,72.8,71.5,94,85,68,29.89,29.80,10,0,10,0.00
2012-8-13,85.0,75.3,67.3,71.9,67.3,63.3,95,77,49,29.91,29.84,8,0,8,0.00
2012-8-14,82.1,73.2,64.9,69.3,65.9,61.5,94,78,51,29.91,29.85,6,0,6,0.00
2012-8-15,82.8,73.9,67.4,72.8,69.5,66.7,97,85,60,29.89,29.79,8,0,8,0.00
2012-8-16,83.2,72.5,66.3,70.7,66.8,62.3,98,82,53,29.84,29.74,6,0,6,0.00
2012-8-17,85.5,73.9,63.1,69.6,66.0,62.0,95,77,54,29.81,29.71,10,1,10,0.00
2012-8-18,70.8,67.4,62.4,69.0,66.0,61.8,96,93,85,29.85,29.76,6,0,6,0.00
2012-8-19,74.6,65.8,57.0,66.1,60.8,55.4,97,83,63,29.92,29.83,6,0,6,0.00
2012-8-20,78.3,68.3,58.8,65.3,61.2,57.2,96,78,49,29.89,29.79,6,0,6,0.00
2012-8-21,82.5,70.7,63.2,64.2,61.1,55.8,92,73,41,30.03,29.84,8,0,8,0.00
2012-8-22,82.3,70.0,58.3,63.5,60.2,54.0,95,72,43,30.10,30.02,6,0,6,0.00
2012-8-23,85.7,72.4,62.4,68.8,64.8,61.4,95,77,47,30.10,30.02,6,0,6,0.00
2012-8-24,82.4,72.4,64.0,68.5,65.7,63.1,96,79,56,30.17,30.06,10,0,10,0.00
2012-8-25,83.2,72.5,64.8,69.1,64.0,56.3,95,75,44,30.28,30.16,8,0,8,0.00
2012-8-26,83.3,70.2,60.4,65.7,61.6,58.6,95,75,46,30.30,30.18,8,0,8,0.00
2012-8-27,85.1,71.7,59.3,70.6,64.3,58.1,95,78,50,30.19,29.88,12,1,12,0.00
2012-8-28,83.0,75.0,68.0,73.3,69.5,63.0,97,83,59,29.89,29.66,6,0,6,0.00
2012-8-29,77.8,66.0,58.0,63.5,54.7,47.3,88,68,40,29.94,29.82,10,0,10,0.00
2012-8-30,80.1,68.0,54.6,59.3,55.3,50.8,92,66,37,30.00,29.90,12,1,12,0.00
2012-8-31,87.0,74.8,62.2,63.3,58.3,54.1,79,57,35,29.93,29.76,10,1,10,0.00
2012-9-1,79.5,71.7,61.6,66.9,61.0,55.2,86,68,51,30.08,29.79,8,1,8,0.00
2012-9-2,80.0,67.2,60.6,63.8,60.0,56.7,93,77,50,30.11,29.99,10,0,10,0.00
2012-9-3,79.3,67.4,58.8,63.4,60.8,56.4,96,79,49,30.19,30.09,8,0,8,0.00
2012-9-4,73.7,68.6,62.4,72.9,67.3,59.0,98,94,80,30.11,29.82,6,0,6,0.00
2012-9-5,80.4,74.2,66.0,76.5,71.7,65.0,99,91,70,29.82,29.66,13,1,13,0.00
2012-9-6,79.0,70.9,64.2,70.2,66.9,63.8,98,86,68,29.87,29.79,6,0,6,0.00
2012-9-7,85.5,74.6,67.1,73.6,69.6,66.6,97,84,55,29.89,29.80,8,0,8,0.00
2012-9-8,82.7,75.2,64.8,74.3,70.7,63.5,95,85,63,29.86,29.58,17,2,17,0.00
2012-9-9,73.2,64.6,57.1,63.9,60.3,55.4,97,85,57,29.81,29.66,4,0,4,0.00
2012-9-10,67.7,60.4,53.7,56.1,52.1,46.3,96,74,54,30.01,29.80,10,1,10,0.00
2012-9-11,72.0,59.3,49.3,55.3,48.9,44.1,87,69,39,30.22,30.01,10,0,10,0.00
2012-9-12,77.2,62.3,49.4,60.4,54.1,48.4,95,76,39,30.32,30.22,5,0,5,0.00
2012-9-13,81.0,67.9,58.5,65.0,60.8,58.1,97,79,47,30.31,30.21,12,0,12,0.00
2012-9-14,81.3,68.8,59.7,65.9,62.3,59.1,97,80,53,30.22,30.03,8,0,8,0.00
2012-9-15,72.2,64.0,53.6,62.8,57.0,49.8,96,78,47,30.04,29.93,12,0,12,0.00
2012-9-16,70.5,58.4,48.5,52.7,49.2,44.0,96,73,39,30.05,29.93,7,0,7,0.00
2012-9-17,73.5,59.5,46.7,58.5,51.8,45.3,95,76,44,30.07,29.97,5,0,5,0.00
2012-9-18,74.5,66.5,56.1,69.7,62.6,55.3,96,86,74,30.02,29.65,20,2,20,0.00
2012-9-19,72.8,64.2,51.9,70.7,56.5,46.8,96,76,45,30.15,29.63,14,1,17,0.00
2012-9-20,64.8,54.9,46.9,51.5,48.6,45.8,94,78,51,30.22,30.12,8,1,8,0.00
2012-9-21,64.8,55.0,48.1,56.7,52.0,47.2,96,88,68,30.14,29.99,7,0,7,0.00
2012-9-22,71.3,62.3,56.9,63.6,59.1,55.8,95,87,72,29.99,29.77,7,0,7,0.00
2012-9-23,68.9,62.8,49.7,65.4,54.1,43.2,97,74,41,30.05,29.75,10,1,10,0.00
2012-9-24,65.2,53.5,44.4,49.3,45.2,40.8,93,74,43,30.10,30.01,8,0,8,0.00
2012-9-25,71.8,57.7,45.3,54.1,48.1,42.6,91,71,45,30.14,30.05,10,1,10,0.00
2012-9-26,73.3,65.7,58.8,64.5,61.0,54.2,93,83,71,30.10,29.95,10,1,10,0.00
2012-9-27,69.3,62.4,51.9,64.5,55.4,48.3,94,78,48,30.20,29.94,7,0,7,0.00
2012-9-28,59.0,56.2,51.7,58.5,55.4,50.4,96,94,92,30.21,29.92,8,0,8,0.00
2012-9-29,59.2,57.5,55.3,58.3,56.1,54.4,96,93,91,29.93,29.83,5,0,5,0.00
2012-9-30,59.4,57.4,54.0,58.4,55.7,52.1,97,93,91,29.87,29.67,5,0,5,0.00
2012-10-1,66.7,57.9,51.1,56.1,52.9,49.2,93,83,63,29.90,29.66,14,1,14,0.00
2012-10-2,70.0,60.5,54.1,63.1,57.9,52.8,97,89,62,30.02,29.89,5,0,5,0.00
2012-10-3,66.0,63.5,61.6,65.4,62.7,61.1,97,95,94,30.11,29.98,5,0,5,0.00
2012-10-4,64.4,63.0,61.6,63.0,61.6,60.1,95,94,93,30.12,29.98,3,0,3,0.00
2012-10-5,75.5,65.3,60.0,63.3,61.0,58.0,97,85,55,30.00,29.87,3,0,3,0.00
2012-10-6,76.5,64.3,52.9,64.0,58.6,46.0,98,81,57,29.89,29.65,14,1,14,0.00
2012-10-7,57.7,51.5,45.3,51.1,46.7,42.3,93,82,57,30.04,29.89,5,0,5,0.00
2012-10-8,57.4,50.4,42.8,50.0,46.5,41.6,96,85,63,30.27,30.01,5,0,5,0.00
2012-10-9,59.1,53.5,48.7,52.6,49.6,47.3,94,84,70,30.27,30.07,8,0,8,0.00
2012-10-10,62.4,57.1,52.2,61.9,55.3,47.3,96,92,77,30.08,29.68,5,0,6,0.00
2012-10-11,59.8,51.0,43.7,50.1,41.7,36.7,88,70,44,30.09,29.76,14,1,14,0.00
2012-10-12,54.0,46.0,39.4,45.1,38.6,29.4,89,74,48,30.33,29.96,7,0,7,0.00
2012-10-13,54.7,43.1,34.6,37.2,30.6,25.7,78,61,33,30.44,30.27,7,0,7,0.00
2012-10-14,66.1,54.6,44.6,58.5,50.6,36.0,95,84,68,30.29,29.90,8,0,8,0.00
2012-10-15,75.0,65.7,57.5,62.7,60.2,55.8,94,82,62,29.90,29.55,20,2,20,0.00
2012-10-16,63.4,53.3,41.4,62.8,45.3,37.8,96,74,47,29.85,29.52,14,1,14,0.00
2012-10-17,61.9,47.1,36.6,45.4,39.9,35.3,92,76,39,29.97,29.83,3,0,3,0.00
2012-10-18,67.9,51.7,40.2,51.1,46.0,39.3,95,81,48,30.08,29.95,8,0,8,0.00
2012-10-19,68.5,60.5,48.7,67.2,58.7,47.8,97,92,68,30.04,29.68,8,0,8,0.00
2012-10-20,74.1,66.0,55.5,67.5,60.4,47.9,98,82,45,29.73,29.56,8,0,8,0.00
2012-10-21,64.7,54.0,45.5,49.7,45.0,41.1,92,71,43,29.85,29.70,14,1,14,0.00
2012-10-22,67.5,55.5,48.1,46.9,45.3,42.6,86,69,42,29.97,29.83,14,1,14,0.00
2012-10-23,65.3,54.4,45.4,51.2,46.6,43.3,92,74,48,30.07,29.96,12,0,12,0.00
2012-10-24,55.0,51.8,47.2,49.3,42.7,36.4,88,69,57,30.18,30.07,5,0,5,0.00
2012-10-25,65.5,52.6,44.0,48.2,43.2,33.5,92,72,33,30.26,30.17,5,0,5,0.00
2012-10-26,69.4,54.4,44.6,56.6,49.9,43.1,94,83,60,30.22,30.06,8,0,8,0.00
2012-10-27,66.0,54.5,46.4,57.2,51.1,45.5,96,86,69,30.08,29.96,7,0,7,0.00
2012-10-28,57.0,54.1,52.1,54.6,52.1,50.5,94,90,81,29.98,29.72,12,2,12,0.00
2012-10-29,63.6,58.2,52.8,62.8,57.4,45.1,98,95,82,29.72,29.15,32,6,32,0.00
2012-10-30,68.7,61.6,53.9,63.0,59.5,53.7,98,91,72,29.53,29.25,14,1,14,0.00
2012-10-31,57.1,53.6,49.2,56.8,51.3,45.1,99,89,74,29.53,29.41,8,0,8,0.00
2012-11-1,57.2,50.0,44.2,46.4,44.2,41.4,90,79,58,29.53,29.44,14,1,14,0.00
2012-11-2,53.6,48.4,44.6,45.2,42.2,37.7,92,77,57,29.57,29.49,12,0,12,0.00
2012-11-3,56.1,47.2,42.0,39.5,37.0,32.9,77,66,47,29.76,29.56,14,2,14,0.00
2012-11-4,56.1,43.8,38.5,38.9,35.0,30.9,83,69,48,29.91,29.74,10,1,10,0.00
2012-11-5,48.4,39.2,30.5,32.3,27.1,22.3,76,60,40,30.10,29.90,8,1,8,0.00
2012-11-6,47.0,33.2,27.3,28.9,23.1,17.9,84,65,32,30.19,30.10,7,0,7,0.00
2012-11-7,39.7,35.8,32.8,32.1,30.2,26.5,91,78,65,30.11,29.69,17,4,20,0.00
2012-11-8,41.4,38.6,34.1,38.9,36.0,31.8,92,88,79,29.72,29.56,22,4,22,0.00
2012-11-9,56.2,43.3,36.5,35.6,30.7,24.9,79,62,31,30.06,29.71,15,2,15,0.00
2012-11-10,57.7,40.6,34.2,37.8,33.6,30.1,91,75,36,30.42,30.05,8,0,8,0.00
2012-11-11,66.0,50.6,36.5,48.3,43.7,35.0,91,76,46,30.46,30.35,14,1,14,0.00
2012-11-12,69.6,57.1,46.5,60.9,52.8,45.5,98,84,57,30.43,30.15,20,2,20,0.00
2012-11-13,65.0,51.3,39.1,62.4,48.8,34.6,93,88,74,30.38,30.07,17,1,17,0.00
2012-11-14,49.6,39.7,33.8,35.3,29.8,25.1,83,66,39,30.49,30.36,12,1,12,0.00
2012-11-15,45.9,37.2,33.7,34.4,31.4,28.2,90,77,59,30.42,30.24,14,1,14,0.00
2012-11-16,47.1,37.9,33.0,34.5,32.1,29.2,90,78,50,30.39,30.23,7,0,7,0.00
2012-11-17,50.6,36.3,30.7,36.4,31.2,28.1,93,80,48,30.62,30.38,7,0,7,0.00
2012-11-18,48.9,35.6,30.0,35.5,31.0,27.5,93,82,53,30.67,30.56,8,0,8,0.00
2012-11-19,49.2,35.8,31.2,39.6,31.8,26.5,93,83,63,30.57,30.21,7,0,7,0.00
2012-11-20,49.8,37.3,29.7,39.9,33.9,28.1,93,85,64,30.21,30.09,8,0,8,0.00
2012-11-21,50.6,42.0,34.6,42.4,37.0,30.9,91,80,63,30.22,30.11,8,1,8,0.00
2012-11-22,55.5,42.8,35.6,42.9,38.8,34.6,94,84,57,30.24,30.06,7,0,7,0.00
2012-11-23,56.1,43.7,34.2,46.5,41.2,32.8,98,89,67,30.07,29.57,12,1,12,0.00
2012-11-24,47.7,42.5,34.1,46.2,28.9,18.0,92,59,37,29.63,29.49,24,3,24,0.00
2012-11-25,40.5,35.1,31.1,26.4,22.2,17.9,73,57,43,29.83,29.62,17,3,17,0.00
2012-11-26,46.9,37.2,32.5,27.9,25.6,21.1,76,62,37,30.20,29.83,19,2,19,0.00
2012-11-27,39.1,36.7,32.0,36.0,32.3,26.8,93,83,73,30.28,30.14,5,0,5,0.00
2012-11-28,39.2,35.2,31.2,34.6,30.1,26.4,89,80,62,30.15,30.07,8,0,8,0.00
2012-11-29,44.0,36.5,31.0,29.3,27.0,23.5,83,68,50,30.22,30.10,17,2,17,0.00
2012-11-30,37.9,34.6,32.3,29.1,19.3,6.8,71,52,30,30.51,30.16,8,1,10,0.00
2012-12-1,35.2,33.2,30.5,30.6,23.7,14.9,83,67,45,30.58,30.43,5,0,6,0.00
2012-12-2,52.9,42.3,34.5,48.8,38.6,30.0,93,86,80,30.44,29.97,14,1,14,0.00
2012-12-3,58.2,48.6,36.2,48.7,42.9,34.9,93,80,55,30.25,29.97,8,2,12,0.00
2012-12-4,59.8,48.0,34.7,56.7,46.1,32.8,94,91,87,30.27,29.90,10,1,15,0.00
2012-12-5,59.5,50.0,33.8,56.2,39.2,18.0,89,66,47,30.11,29.78,14,4,20,0.00
2012-12-6,40.4,33.0,27.3,24.5,21.0,18.0,80,60,40,30.27,30.10,7,1,8,0.00
2012-12-7,45.2,38.5,27.3,42.2,33.1,22.2,89,80,68,30.24,29.97,5,0,10,0.00
2012-12-8,47.9,46.1,44.6,45.8,43.5,41.9,92,90,89,29.98,29.81,5,0,6,0.00
2012-12-9,47.0,43.8,40.3,45.0,39.2,33.0,93,83,61,30.24,29.93,8,1,8,0.00
2012-12-10,60.2,53.2,44.5,60.2,52.2,42.0,100,96,81,30.06,29.44,7,1,11,0.00
2012-12-11,57.2,46.1,35.0,56.1,37.5,25.2,97,72,54,30.10,29.47,8,1,15,0.00
2012-12-12,41.9,35.4,31.8,29.4,26.6,23.8,87,71,50,30.38,30.11,8,0,8,0.00
2012-12-13,43.8,34.2,28.1,30.6,28.0,25.6,93,79,52,30.42,30.24,5,0,5,0.00
2012-12-14,47.8,37.0,29.3,30.2,27.0,22.9,88,70,38,30.23,30.00,12,1,13,0.00
2012-12-15,42.9,35.5,31.1,30.8,26.9,20.8,90,72,42,30.29,30.11,8,0,10,0.00
2012-12-16,39.7,35.6,31.3,38.5,30.6,24.1,97,83,67,30.28,30.02,7,1,8,0.00
2012-12-17,41.2,36.9,33.3,40.1,35.9,32.4,98,96,90,30.02,29.75,10,1,10,0.00
2012-12-18,53.2,46.0,38.4,51.4,44.9,37.9,100,96,94,29.75,29.36,7,1,8,0.00
2012-12-19,47.5,42.3,38.4,42.3,35.1,31.4,94,76,62,29.98,29.39,15,3,17,0.00
2012-12-20,45.2,39.0,31.8,38.1,32.9,29.1,93,80,60,30.17,29.98,8,0,8,0.00
2012-12-21,54.9,44.9,39.0,54.2,42.6,35.5,100,92,75,29.98,29.04,14,3,22,0.00
2012-12-22,39.7,35.2,30.5,35.7,26.3,17.8,88,70,53,29.60,29.18,15,3,22,0.00
2012-12-23,40.0,34.5,29.0,31.2,23.3,17.8,78,63,50,29.83,29.60,14,2,18,0.00
2012-12-24,41.3,34.3,29.4,27.1,24.0,20.4,83,67,45,30.01,29.82,8,1,10,0.00
2012-12-25,37.5,33.8,29.3,30.9,27.5,21.2,86,78,68,30.17,29.93,7,0,10,0.00
2012-12-26,37.9,31.6,24.4,35.5,23.2,11.9,98,75,59,30.26,29.87,10,1,15,0.00
2012-12-27,46.5,39.5,33.1,46.1,38.8,31.3,100,97,91,29.84,29.19,17,5,23,0.00
2012-12-28,37.1,32.8,28.3,30.9,26.3,22.4,90,77,63,29.96,29.57,15,2,15,0.00
2012-12-29,36.6,32.3,28.5,34.3,29.0,25.6,97,88,70,29.97,29.34,5,0,8,0.00
2012-12-30,32.2,28.7,22.8,31.1,19.6,6.3,95,72,51,29.93,29.39,20,3,20,0.00
2012-12-31,35.8,28.9,21.3,26.2,18.8,6.6,80,70,60,30.00,29.73,12,2,13,0.00
2013-1-1,36.8,32.8,23.3,27.9,19.7,6.5,76,60,46,29.89,29.67,24,2,24,0.00